sensor_id;sensor_type;location;lat;lon;timestamp;P1;durP1;ratioP1;P2;durP2;ratioP2
18651;SDS011;9455;54.302;10.124;2023-02-28T00:01:42;8.47;;;4.40;;
18651;SDS011;9455;54.302;10.124;2023-02-28T00:04:09;5.07;;;4.40;;
18651;SDS011;9455;54.302;10.124;2023-02-28T00:06:35;15.13;;;4.57;;
18651;SDS011;9455;54.302;10.124;2023-02-28T00:09:02;7.87;;;3.77;;
18651;SDS011;9455;54.302;10.124;2023-02-28T00:11:29;4.83;;;3.97;;
18651;SDS011;9455;54.302;10.124;2023-02-28T00:13:57;9.60;;;4.17;;
18651;SDS011;9455;54.302;10.124;2023-02-28T00:16:24;4.33;;;3.57;;
18651;SDS011;9455;54.302;10.124;2023-02-28T00:18:51;6.67;;;4.17;;
18651;SDS011;9455;54.302;10.124;2023-02-28T00:21:18;7.20;;;3.83;;
18651;SDS011;9455;54.302;10.124;2023-02-28T00:23:45;8.30;;;3.80;;
18651;SDS011;9455;54.302;10.124;2023-02-28T00:26:12;10.70;;;4.60;;
18651;SDS011;9455;54.302;10.124;2023-02-28T00:28:39;10.87;;;4.50;;
18651;SDS011;9455;54.302;10.124;2023-02-28T00:31:07;6.57;;;3.73;;
18651;SDS011;9455;54.302;10.124;2023-02-28T00:33:34;5.97;;;3.87;;
18651;SDS011;9455;54.302;10.124;2023-02-28T00:36:01;7.50;;;4.03;;
18651;SDS011;9455;54.302;10.124;2023-02-28T00:38:29;6.87;;;3.57;;
18651;SDS011;9455;54.302;10.124;2023-02-28T00:40:56;8.87;;;4.57;;
18651;SDS011;9455;54.302;10.124;2023-02-28T00:43:23;35.80;;;9.83;;
18651;SDS011;9455;54.302;10.124;2023-02-28T00:45:50;9.13;;;4.50;;
18651;SDS011;9455;54.302;10.124;2023-02-28T00:48:18;4.70;;;3.40;;
18651;SDS011;9455;54.302;10.124;2023-02-28T00:50:44;4.60;;;3.13;;
18651;SDS011;9455;54.302;10.124;2023-02-28T00:53:14;8.37;;;3.80;;
18651;SDS011;9455;54.302;10.124;2023-02-28T00:55:41;7.13;;;3.63;;
18651;SDS011;9455;54.302;10.124;2023-02-28T00:58:07;4.40;;;3.30;;
18651;SDS011;9455;54.302;10.124;2023-02-28T01:00:34;5.03;;;3.23;;
18651;SDS011;9455;54.302;10.124;2023-02-28T01:03:00;7.57;;;3.47;;
18651;SDS011;9455;54.302;10.124;2023-02-28T01:05:28;4.57;;;3.30;;
18651;SDS011;9455;54.302;10.124;2023-02-28T01:07:55;7.13;;;4.10;;
18651;SDS011;9455;54.302;10.124;2023-02-28T01:10:21;5.47;;;3.50;;
18651;SDS011;9455;54.302;10.124;2023-02-28T01:12:48;5.97;;;3.33;;
18651;SDS011;9455;54.302;10.124;2023-02-28T01:15:15;5.60;;;3.27;;
18651;SDS011;9455;54.302;10.124;2023-02-28T01:17:41;11.37;;;3.37;;
18651;SDS011;9455;54.302;10.124;2023-02-28T01:20:09;9.40;;;3.93;;
18651;SDS011;9455;54.302;10.124;2023-02-28T01:22:37;8.80;;;3.23;;
18651;SDS011;9455;54.302;10.124;2023-02-28T01:25:04;7.73;;;3.73;;
18651;SDS011;9455;54.302;10.124;2023-02-28T01:27:31;9.23;;;3.47;;
18651;SDS011;9455;54.302;10.124;2023-02-28T01:30:00;10.30;;;3.57;;
18651;SDS011;9455;54.302;10.124;2023-02-28T01:32:27;7.03;;;3.80;;
18651;SDS011;9455;54.302;10.124;2023-02-28T01:34:54;6.27;;;3.80;;
18651;SDS011;9455;54.302;10.124;2023-02-28T01:37:21;6.83;;;3.43;;
18651;SDS011;9455;54.302;10.124;2023-02-28T01:39:48;8.30;;;3.70;;
18651;SDS011;9455;54.302;10.124;2023-02-28T01:42:15;8.87;;;3.07;;
18651;SDS011;9455;54.302;10.124;2023-02-28T01:44:55;7.07;;;3.23;;
18651;SDS011;9455;54.302;10.124;2023-02-28T01:47:26;8.33;;;3.00;;
18651;SDS011;9455;54.302;10.124;2023-02-28T01:49:55;8.10;;;3.07;;
18651;SDS011;9455;54.302;10.124;2023-02-28T01:52:21;5.37;;;3.57;;
18651;SDS011;9455;54.302;10.124;2023-02-28T01:54:52;9.10;;;3.40;;
18651;SDS011;9455;54.302;10.124;2023-02-28T01:57:22;7.47;;;3.07;;
18651;SDS011;9455;54.302;10.124;2023-02-28T01:59:54;7.23;;;3.20;;
18651;SDS011;9455;54.302;10.124;2023-02-28T02:02:24;4.10;;;2.80;;
18651;SDS011;9455;54.302;10.124;2023-02-28T02:04:53;5.33;;;2.63;;
18651;SDS011;9455;54.302;10.124;2023-02-28T02:07:23;5.53;;;3.17;;
18651;SDS011;9455;54.302;10.124;2023-02-28T02:09:58;3.10;;;2.80;;
18651;SDS011;9455;54.302;10.124;2023-02-28T02:12:28;3.53;;;2.97;;
18651;SDS011;9455;54.302;10.124;2023-02-28T02:15:12;3.67;;;3.23;;
18651;SDS011;9455;54.302;10.124;2023-02-28T02:17:44;3.80;;;2.90;;
18651;SDS011;9455;54.302;10.124;2023-02-28T02:26:13;12.17;;;3.87;;
18651;SDS011;9455;54.302;10.124;2023-02-28T02:29:13;9.97;;;3.73;;
18651;SDS011;9455;54.302;10.124;2023-02-28T02:32:14;10.13;;;4.53;;
18651;SDS011;9455;54.302;10.124;2023-02-28T02:34:57;5.07;;;3.40;;
18651;SDS011;9455;54.302;10.124;2023-02-28T02:37:33;6.13;;;2.90;;
18651;SDS011;9455;54.302;10.124;2023-02-28T02:40:07;3.30;;;3.00;;
18651;SDS011;9455;54.302;10.124;2023-02-28T02:42:41;5.70;;;3.33;;
18651;SDS011;9455;54.302;10.124;2023-02-28T02:45:12;3.57;;;3.27;;
18651;SDS011;9455;54.302;10.124;2023-02-28T02:47:43;5.50;;;3.50;;
18651;SDS011;9455;54.302;10.124;2023-02-28T02:50:14;8.13;;;3.30;;
18651;SDS011;9455;54.302;10.124;2023-02-28T02:52:46;6.67;;;3.57;;
18651;SDS011;9455;54.302;10.124;2023-02-28T02:55:18;10.40;;;3.50;;
18651;SDS011;9455;54.302;10.124;2023-02-28T02:57:49;5.93;;;3.73;;
18651;SDS011;9455;54.302;10.124;2023-02-28T03:00:20;7.80;;;3.47;;
18651;SDS011;9455;54.302;10.124;2023-02-28T03:02:52;6.57;;;3.27;;
18651;SDS011;9455;54.302;10.124;2023-02-28T03:05:23;3.30;;;2.93;;
18651;SDS011;9455;54.302;10.124;2023-02-28T03:07:52;8.13;;;3.23;;
18651;SDS011;9455;54.302;10.124;2023-02-28T03:10:26;7.50;;;3.40;;
18651;SDS011;9455;54.302;10.124;2023-02-28T03:12:56;8.70;;;3.57;;
18651;SDS011;9455;54.302;10.124;2023-02-28T03:15:32;8.40;;;3.60;;
18651;SDS011;9455;54.302;10.124;2023-02-28T03:18:08;6.43;;;3.67;;
18651;SDS011;9455;54.302;10.124;2023-02-28T03:20:45;6.20;;;3.80;;
18651;SDS011;9455;54.302;10.124;2023-02-28T03:23:19;9.67;;;3.57;;
18651;SDS011;9455;54.302;10.124;2023-02-28T03:25:54;3.57;;;3.27;;
18651;SDS011;9455;54.302;10.124;2023-02-28T03:28:28;6.57;;;3.93;;
18651;SDS011;9455;54.302;10.124;2023-02-28T03:31:03;3.60;;;3.30;;
18651;SDS011;9455;54.302;10.124;2023-02-28T03:33:38;5.93;;;3.70;;
18651;SDS011;9455;54.302;10.124;2023-02-28T03:36:12;7.47;;;3.27;;
18651;SDS011;9455;54.302;10.124;2023-02-28T03:38:43;11.03;;;3.43;;
18651;SDS011;9455;54.302;10.124;2023-02-28T03:41:13;5.03;;;4.00;;
18651;SDS011;9455;54.302;10.124;2023-02-28T03:43:45;7.47;;;3.50;;
18651;SDS011;9455;54.302;10.124;2023-02-28T03:46:16;5.40;;;3.50;;
18651;SDS011;9455;54.302;10.124;2023-02-28T03:48:48;4.33;;;3.70;;
18651;SDS011;9455;54.302;10.124;2023-02-28T03:51:21;4.33;;;3.37;;
18651;SDS011;9455;54.302;10.124;2023-02-28T03:53:50;9.90;;;3.23;;
18651;SDS011;9455;54.302;10.124;2023-02-28T03:56:21;10.20;;;3.50;;
18651;SDS011;9455;54.302;10.124;2023-02-28T03:58:51;9.37;;;3.77;;
18651;SDS011;9455;54.302;10.124;2023-02-28T04:01:24;6.00;;;3.37;;
18651;SDS011;9455;54.302;10.124;2023-02-28T04:03:54;4.50;;;3.50;;
18651;SDS011;9455;54.302;10.124;2023-02-28T04:06:22;5.07;;;3.53;;
18651;SDS011;9455;54.302;10.124;2023-02-28T04:08:49;8.20;;;3.03;;
18651;SDS011;9455;54.302;10.124;2023-02-28T04:11:18;3.67;;;3.40;;
18651;SDS011;9455;54.302;10.124;2023-02-28T04:13:48;10.30;;;3.63;;
18651;SDS011;9455;54.302;10.124;2023-02-28T04:16:15;9.13;;;4.30;;
18651;SDS011;9455;54.302;10.124;2023-02-28T04:18:42;7.60;;;3.60;;
18651;SDS011;9455;54.302;10.124;2023-02-28T04:21:09;12.07;;;3.93;;
18651;SDS011;9455;54.302;10.124;2023-02-28T04:23:37;5.43;;;3.20;;
18651;SDS011;9455;54.302;10.124;2023-02-28T04:26:04;4.87;;;3.43;;
18651;SDS011;9455;54.302;10.124;2023-02-28T04:28:31;6.13;;;4.27;;
18651;SDS011;9455;54.302;10.124;2023-02-28T04:30:59;6.43;;;3.90;;
18651;SDS011;9455;54.302;10.124;2023-02-28T04:33:27;10.07;;;3.60;;
18651;SDS011;9455;54.302;10.124;2023-02-28T04:35:58;12.40;;;3.97;;
18651;SDS011;9455;54.302;10.124;2023-02-28T04:38:25;4.80;;;3.30;;
18651;SDS011;9455;54.302;10.124;2023-02-28T04:40:53;6.70;;;4.60;;
18651;SDS011;9455;54.302;10.124;2023-02-28T04:43:22;6.83;;;4.03;;
18651;SDS011;9455;54.302;10.124;2023-02-28T04:45:49;11.93;;;4.27;;
18651;SDS011;9455;54.302;10.124;2023-02-28T04:48:15;6.60;;;4.30;;
18651;SDS011;9455;54.302;10.124;2023-02-28T04:50:42;13.13;;;4.83;;
18651;SDS011;9455;54.302;10.124;2023-02-28T04:53:08;5.67;;;3.50;;
18651;SDS011;9455;54.302;10.124;2023-02-28T04:55:35;7.17;;;4.27;;
18651;SDS011;9455;54.302;10.124;2023-02-28T04:58:06;4.77;;;4.23;;
18651;SDS011;9455;54.302;10.124;2023-02-28T05:00:33;6.30;;;4.40;;
18651;SDS011;9455;54.302;10.124;2023-02-28T05:02:59;12.13;;;4.03;;
18651;SDS011;9455;54.302;10.124;2023-02-28T05:05:26;9.80;;;4.90;;
18651;SDS011;9455;54.302;10.124;2023-02-28T05:07:53;7.47;;;4.80;;
18651;SDS011;9455;54.302;10.124;2023-02-28T05:10:20;5.73;;;4.40;;
18651;SDS011;9455;54.302;10.124;2023-02-28T05:12:47;14.77;;;5.17;;
18651;SDS011;9455;54.302;10.124;2023-02-28T05:15:15;6.47;;;4.50;;
18651;SDS011;9455;54.302;10.124;2023-02-28T05:17:42;8.30;;;4.50;;
18651;SDS011;9455;54.302;10.124;2023-02-28T05:20:10;7.63;;;5.00;;
18651;SDS011;9455;54.302;10.124;2023-02-28T05:22:38;6.57;;;4.17;;
18651;SDS011;9455;54.302;10.124;2023-02-28T05:25:05;8.57;;;4.57;;
18651;SDS011;9455;54.302;10.124;2023-02-28T05:27:33;8.60;;;4.90;;
18651;SDS011;9455;54.302;10.124;2023-02-28T05:29:59;8.50;;;4.67;;
18651;SDS011;9455;54.302;10.124;2023-02-28T05:32:29;11.20;;;4.50;;
18651;SDS011;9455;54.302;10.124;2023-02-28T05:34:56;12.07;;;5.20;;
18651;SDS011;9455;54.302;10.124;2023-02-28T05:37:22;7.57;;;4.87;;
18651;SDS011;9455;54.302;10.124;2023-02-28T05:39:49;11.23;;;5.80;;
18651;SDS011;9455;54.302;10.124;2023-02-28T05:42:16;25.97;;;10.10;;
18651;SDS011;9455;54.302;10.124;2023-02-28T05:44:42;20.13;;;7.73;;
18651;SDS011;9455;54.302;10.124;2023-02-28T05:47:09;14.20;;;6.17;;
18651;SDS011;9455;54.302;10.124;2023-02-28T05:49:39;14.87;;;7.03;;
18651;SDS011;9455;54.302;10.124;2023-02-28T05:52:05;13.03;;;6.63;;
18651;SDS011;9455;54.302;10.124;2023-02-28T05:54:32;12.50;;;5.60;;
18651;SDS011;9455;54.302;10.124;2023-02-28T05:56:58;13.13;;;7.27;;
18651;SDS011;9455;54.302;10.124;2023-02-28T05:59:25;27.90;;;10.73;;
18651;SDS011;9455;54.302;10.124;2023-02-28T06:01:52;23.80;;;10.27;;
18651;SDS011;9455;54.302;10.124;2023-02-28T06:04:19;18.87;;;9.67;;
18651;SDS011;9455;54.302;10.124;2023-02-28T06:06:48;16.03;;;7.87;;
18651;SDS011;9455;54.302;10.124;2023-02-28T06:09:15;16.17;;;7.97;;
18651;SDS011;9455;54.302;10.124;2023-02-28T06:11:43;12.40;;;5.87;;
18651;SDS011;9455;54.302;10.124;2023-02-28T06:14:12;15.37;;;7.10;;
18651;SDS011;9455;54.302;10.124;2023-02-28T06:16:40;15.33;;;5.80;;
18651;SDS011;9455;54.302;10.124;2023-02-28T06:19:08;11.60;;;7.43;;
18651;SDS011;9455;54.302;10.124;2023-02-28T06:21:35;13.13;;;6.77;;
18651;SDS011;9455;54.302;10.124;2023-02-28T06:24:04;16.37;;;7.23;;
18651;SDS011;9455;54.302;10.124;2023-02-28T06:26:32;20.50;;;6.90;;
18651;SDS011;9455;54.302;10.124;2023-02-28T06:28:58;14.63;;;6.67;;
18651;SDS011;9455;54.302;10.124;2023-02-28T06:31:25;14.13;;;7.00;;
18651;SDS011;9455;54.302;10.124;2023-02-28T06:33:54;17.40;;;7.60;;
18651;SDS011;9455;54.302;10.124;2023-02-28T06:36:21;17.17;;;7.23;;
18651;SDS011;9455;54.302;10.124;2023-02-28T06:38:48;25.13;;;9.83;;
18651;SDS011;9455;54.302;10.124;2023-02-28T06:41:21;20.13;;;8.80;;
18651;SDS011;9455;54.302;10.124;2023-02-28T06:43:48;14.73;;;7.90;;
18651;SDS011;9455;54.302;10.124;2023-02-28T06:46:14;32.40;;;10.77;;
18651;SDS011;9455;54.302;10.124;2023-02-28T06:48:42;35.23;;;11.90;;
18651;SDS011;9455;54.302;10.124;2023-02-28T06:51:10;15.20;;;6.90;;
18651;SDS011;9455;54.302;10.124;2023-02-28T06:53:39;13.37;;;7.37;;
18651;SDS011;9455;54.302;10.124;2023-02-28T06:56:06;22.77;;;9.07;;
18651;SDS011;9455;54.302;10.124;2023-02-28T06:58:35;24.07;;;9.27;;
18651;SDS011;9455;54.302;10.124;2023-02-28T07:01:02;15.30;;;7.67;;
18651;SDS011;9455;54.302;10.124;2023-02-28T07:03:29;14.83;;;6.30;;
18651;SDS011;9455;54.302;10.124;2023-02-28T07:05:56;16.40;;;7.07;;
18651;SDS011;9455;54.302;10.124;2023-02-28T07:08:23;13.43;;;6.10;;
18651;SDS011;9455;54.302;10.124;2023-02-28T07:10:52;17.23;;;6.80;;
18651;SDS011;9455;54.302;10.124;2023-02-28T07:13:19;10.23;;;5.60;;
18651;SDS011;9455;54.302;10.124;2023-02-28T07:15:53;14.83;;;6.10;;
18651;SDS011;9455;54.302;10.124;2023-02-28T07:18:21;18.37;;;6.60;;
18651;SDS011;9455;54.302;10.124;2023-02-28T07:20:47;9.63;;;5.90;;
18651;SDS011;9455;54.302;10.124;2023-02-28T07:23:14;8.50;;;6.07;;
18651;SDS011;9455;54.302;10.124;2023-02-28T07:25:40;13.27;;;6.50;;
18651;SDS011;9455;54.302;10.124;2023-02-28T07:28:07;11.27;;;6.93;;
18651;SDS011;9455;54.302;10.124;2023-02-28T07:30:34;15.57;;;6.40;;
18651;SDS011;9455;54.302;10.124;2023-02-28T07:33:02;16.83;;;6.40;;
18651;SDS011;9455;54.302;10.124;2023-02-28T07:35:28;13.90;;;5.50;;
18651;SDS011;9455;54.302;10.124;2023-02-28T07:37:56;11.73;;;6.83;;
18651;SDS011;9455;54.302;10.124;2023-02-28T07:40:23;13.87;;;6.80;;
18651;SDS011;9455;54.302;10.124;2023-02-28T07:42:50;9.57;;;6.23;;
18651;SDS011;9455;54.302;10.124;2023-02-28T07:45:17;12.10;;;6.03;;
18651;SDS011;9455;54.302;10.124;2023-02-28T07:47:44;11.47;;;5.93;;
18651;SDS011;9455;54.302;10.124;2023-02-28T07:50:14;15.93;;;6.57;;
18651;SDS011;9455;54.302;10.124;2023-02-28T07:52:41;10.63;;;5.93;;
18651;SDS011;9455;54.302;10.124;2023-02-28T07:55:09;11.70;;;6.07;;
18651;SDS011;9455;54.302;10.124;2023-02-28T07:57:36;8.67;;;5.30;;
18651;SDS011;9455;54.302;10.124;2023-02-28T08:00:03;7.00;;;5.63;;
18651;SDS011;9455;54.302;10.124;2023-02-28T08:02:31;12.73;;;5.27;;
18651;SDS011;9455;54.302;10.124;2023-02-28T08:04:57;8.27;;;5.40;;
18651;SDS011;9455;54.302;10.124;2023-02-28T08:07:25;10.13;;;5.50;;
18651;SDS011;9455;54.302;10.124;2023-02-28T08:09:51;14.97;;;5.37;;
18651;SDS011;9455;54.302;10.124;2023-02-28T08:12:18;10.13;;;5.60;;
18651;SDS011;9455;54.302;10.124;2023-02-28T08:14:45;9.90;;;5.40;;
18651;SDS011;9455;54.302;10.124;2023-02-28T08:17:11;11.10;;;5.50;;
18651;SDS011;9455;54.302;10.124;2023-02-28T08:19:38;11.97;;;5.97;;
18651;SDS011;9455;54.302;10.124;2023-02-28T08:22:04;12.20;;;5.33;;
18651;SDS011;9455;54.302;10.124;2023-02-28T08:24:32;11.37;;;5.47;;
18651;SDS011;9455;54.302;10.124;2023-02-28T08:26:59;9.10;;;5.07;;
18651;SDS011;9455;54.302;10.124;2023-02-28T08:29:25;7.40;;;4.53;;
18651;SDS011;9455;54.302;10.124;2023-02-28T08:31:52;9.80;;;5.57;;
18651;SDS011;9455;54.302;10.124;2023-02-28T08:34:19;14.90;;;4.57;;
18651;SDS011;9455;54.302;10.124;2023-02-28T08:36:46;7.37;;;4.57;;
18651;SDS011;9455;54.302;10.124;2023-02-28T08:39:12;11.03;;;4.80;;
18651;SDS011;9455;54.302;10.124;2023-02-28T08:41:41;10.00;;;4.67;;
18651;SDS011;9455;54.302;10.124;2023-02-28T08:44:09;5.77;;;4.40;;
18651;SDS011;9455;54.302;10.124;2023-02-28T08:46:35;7.97;;;4.97;;
18651;SDS011;9455;54.302;10.124;2023-02-28T08:49:02;9.27;;;4.93;;
18651;SDS011;9455;54.302;10.124;2023-02-28T08:51:28;10.83;;;4.03;;
18651;SDS011;9455;54.302;10.124;2023-02-28T08:53:57;5.77;;;4.53;;
18651;SDS011;9455;54.302;10.124;2023-02-28T08:56:24;15.10;;;4.73;;
18651;SDS011;9455;54.302;10.124;2023-02-28T08:58:53;8.60;;;4.30;;
18651;SDS011;9455;54.302;10.124;2023-02-28T09:01:22;5.47;;;3.47;;
18651;SDS011;9455;54.302;10.124;2023-02-28T09:03:51;8.57;;;4.13;;
18651;SDS011;9455;54.302;10.124;2023-02-28T09:06:19;9.50;;;4.23;;
18651;SDS011;9455;54.302;10.124;2023-02-28T09:08:46;5.73;;;3.40;;
18651;SDS011;9455;54.302;10.124;2023-02-28T09:11:13;7.40;;;3.47;;
18651;SDS011;9455;54.302;10.124;2023-02-28T09:13:40;3.60;;;3.30;;
18651;SDS011;9455;54.302;10.124;2023-02-28T09:16:09;10.17;;;3.80;;
18651;SDS011;9455;54.302;10.124;2023-02-28T09:18:38;5.47;;;3.03;;
18651;SDS011;9455;54.302;10.124;2023-02-28T09:21:06;4.80;;;3.23;;
18651;SDS011;9455;54.302;10.124;2023-02-28T09:23:33;7.37;;;3.17;;
18651;SDS011;9455;54.302;10.124;2023-02-28T09:26:03;7.27;;;3.47;;
18651;SDS011;9455;54.302;10.124;2023-02-28T09:28:31;6.57;;;3.03;;
18651;SDS011;9455;54.302;10.124;2023-02-28T09:30:58;3.90;;;2.70;;
18651;SDS011;9455;54.302;10.124;2023-02-28T09:33:26;8.30;;;3.50;;
18651;SDS011;9455;54.302;10.124;2023-02-28T09:35:57;7.87;;;3.60;;
18651;SDS011;9455;54.302;10.124;2023-02-28T09:38:25;6.87;;;3.13;;
18651;SDS011;9455;54.302;10.124;2023-02-28T09:40:53;6.77;;;2.90;;
18651;SDS011;9455;54.302;10.124;2023-02-28T09:43:22;5.63;;;2.77;;
18651;SDS011;9455;54.302;10.124;2023-02-28T09:45:51;3.97;;;2.80;;
18651;SDS011;9455;54.302;10.124;2023-02-28T09:48:24;11.23;;;4.00;;
18651;SDS011;9455;54.302;10.124;2023-02-28T09:50:55;5.97;;;3.30;;
18651;SDS011;9455;54.302;10.124;2023-02-28T09:53:29;3.67;;;2.70;;
18651;SDS011;9455;54.302;10.124;2023-02-28T09:55:59;3.23;;;2.30;;
18651;SDS011;9455;54.302;10.124;2023-02-28T09:58:31;2.70;;;2.00;;
18651;SDS011;9455;54.302;10.124;2023-02-28T10:01:03;6.20;;;2.40;;
18651;SDS011;9455;54.302;10.124;2023-02-28T10:03:37;6.40;;;2.43;;
18651;SDS011;9455;54.302;10.124;2023-02-28T10:06:07;3.70;;;2.27;;
18651;SDS011;9455;54.302;10.124;2023-02-28T10:08:38;7.87;;;2.13;;
18651;SDS011;9455;54.302;10.124;2023-02-28T10:11:11;8.00;;;2.37;;
18651;SDS011;9455;54.302;10.124;2023-02-28T10:13:45;4.23;;;2.73;;
18651;SDS011;9455;54.302;10.124;2023-02-28T10:16:20;4.10;;;1.97;;
18651;SDS011;9455;54.302;10.124;2023-02-28T10:18:54;3.07;;;1.87;;
18651;SDS011;9455;54.302;10.124;2023-02-28T10:21:26;3.57;;;2.00;;
18651;SDS011;9455;54.302;10.124;2023-02-28T10:23:59;2.30;;;2.10;;
18651;SDS011;9455;54.302;10.124;2023-02-28T10:26:29;3.70;;;1.80;;
18651;SDS011;9455;54.302;10.124;2023-02-28T10:28:57;2.00;;;1.53;;
18651;SDS011;9455;54.302;10.124;2023-02-28T10:31:25;3.67;;;1.60;;
18651;SDS011;9455;54.302;10.124;2023-02-28T10:33:53;1.50;;;1.40;;
18651;SDS011;9455;54.302;10.124;2023-02-28T10:36:20;2.77;;;1.83;;
18651;SDS011;9455;54.302;10.124;2023-02-28T10:38:48;1.50;;;1.40;;
18651;SDS011;9455;54.302;10.124;2023-02-28T10:41:15;4.00;;;1.87;;
18651;SDS011;9455;54.302;10.124;2023-02-28T10:43:52;1.30;;;1.30;;
18651;SDS011;9455;54.302;10.124;2023-02-28T10:46:19;4.97;;;1.50;;
18651;SDS011;9455;54.302;10.124;2023-02-28T10:49:00;1.93;;;1.47;;
18651;SDS011;9455;54.302;10.124;2023-02-28T10:51:34;1.23;;;1.23;;
18651;SDS011;9455;54.302;10.124;2023-02-28T10:54:03;1.37;;;1.17;;
18651;SDS011;9455;54.302;10.124;2023-02-28T10:56:31;5.00;;;1.90;;
18651;SDS011;9455;54.302;10.124;2023-02-28T10:58:59;2.23;;;1.50;;
18651;SDS011;9455;54.302;10.124;2023-02-28T11:01:34;3.03;;;1.60;;
18651;SDS011;9455;54.302;10.124;2023-02-28T11:04:05;1.50;;;1.50;;
18651;SDS011;9455;54.302;10.124;2023-02-28T11:06:43;1.80;;;1.70;;
18651;SDS011;9455;54.302;10.124;2023-02-28T11:09:18;4.20;;;1.70;;
18651;SDS011;9455;54.302;10.124;2023-02-28T11:11:49;3.93;;;1.67;;
18651;SDS011;9455;54.302;10.124;2023-02-28T11:14:18;2.90;;;2.60;;
18651;SDS011;9455;54.302;10.124;2023-02-28T11:16:47;1.60;;;1.50;;
18651;SDS011;9455;54.302;10.124;2023-02-28T11:19:19;5.70;;;1.70;;
18651;SDS011;9455;54.302;10.124;2023-02-28T11:21:53;2.10;;;1.80;;
18651;SDS011;9455;54.302;10.124;2023-02-28T11:24:23;1.23;;;1.23;;
18651;SDS011;9455;54.302;10.124;2023-02-28T11:26:53;2.77;;;1.43;;
18651;SDS011;9455;54.302;10.124;2023-02-28T11:29:21;2.80;;;1.50;;
18651;SDS011;9455;54.302;10.124;2023-02-28T11:32:00;3.50;;;1.80;;
18651;SDS011;9455;54.302;10.124;2023-02-28T11:34:31;4.43;;;1.63;;
18651;SDS011;9455;54.302;10.124;2023-02-28T11:36:58;2.40;;;1.60;;
18651;SDS011;9455;54.302;10.124;2023-02-28T11:39:29;1.50;;;1.40;;
18651;SDS011;9455;54.302;10.124;2023-02-28T11:42:04;3.30;;;2.00;;
18651;SDS011;9455;54.302;10.124;2023-02-28T11:44:55;1.43;;;1.33;;
18651;SDS011;9455;54.302;10.124;2023-02-28T11:47:32;1.97;;;1.70;;
18651;SDS011;9455;54.302;10.124;2023-02-28T11:50:14;4.13;;;1.30;;
18651;SDS011;9455;54.302;10.124;2023-02-28T11:52:52;6.30;;;1.53;;
18651;SDS011;9455;54.302;10.124;2023-02-28T11:55:20;2.00;;;1.30;;
18651;SDS011;9455;54.302;10.124;2023-02-28T11:57:55;3.23;;;1.60;;
18651;SDS011;9455;54.302;10.124;2023-02-28T12:00:36;2.30;;;1.30;;
18651;SDS011;9455;54.302;10.124;2023-02-28T12:03:15;5.93;;;1.50;;
18651;SDS011;9455;54.302;10.124;2023-02-28T12:05:54;1.60;;;1.50;;
18651;SDS011;9455;54.302;10.124;2023-02-28T12:08:39;1.50;;;1.40;;
18651;SDS011;9455;54.302;10.124;2023-02-28T12:11:18;2.67;;;1.20;;
18651;SDS011;9455;54.302;10.124;2023-02-28T12:13:54;1.43;;;1.30;;
18651;SDS011;9455;54.302;10.124;2023-02-28T12:16:35;1.40;;;1.40;;
18651;SDS011;9455;54.302;10.124;2023-02-28T12:19:16;4.00;;;2.03;;
18651;SDS011;9455;54.302;10.124;2023-02-28T12:22:03;1.13;;;1.13;;
18651;SDS011;9455;54.302;10.124;2023-02-28T12:24:40;1.40;;;1.40;;
18651;SDS011;9455;54.302;10.124;2023-02-28T12:27:14;1.47;;;1.33;;
18651;SDS011;9455;54.302;10.124;2023-02-28T12:29:46;4.10;;;1.33;;
18651;SDS011;9455;54.302;10.124;2023-02-28T12:32:16;2.20;;;1.57;;
18651;SDS011;9455;54.302;10.124;2023-02-28T12:34:47;2.40;;;1.37;;
18651;SDS011;9455;54.302;10.124;2023-02-28T12:37:19;3.67;;;1.57;;
18651;SDS011;9455;54.302;10.124;2023-02-28T12:39:51;1.50;;;1.50;;
18651;SDS011;9455;54.302;10.124;2023-02-28T12:42:26;3.90;;;1.60;;
18651;SDS011;9455;54.302;10.124;2023-02-28T12:44:56;2.00;;;1.00;;
18651;SDS011;9455;54.302;10.124;2023-02-28T12:47:25;2.37;;;1.20;;
18651;SDS011;9455;54.302;10.124;2023-02-28T12:49:52;2.60;;;1.50;;
18651;SDS011;9455;54.302;10.124;2023-02-28T12:52:25;1.60;;;1.37;;
18651;SDS011;9455;54.302;10.124;2023-02-28T12:55:02;1.77;;;1.67;;
18651;SDS011;9455;54.302;10.124;2023-02-28T12:57:35;3.00;;;1.40;;
18651;SDS011;9455;54.302;10.124;2023-02-28T13:00:10;5.03;;;2.00;;
18651;SDS011;9455;54.302;10.124;2023-02-28T13:09:10;4.97;;;1.40;;
18651;SDS011;9455;54.302;10.124;2023-02-28T13:11:40;3.83;;;2.33;;
18651;SDS011;9455;54.302;10.124;2023-02-28T13:17:03;1.33;;;1.23;;
18651;SDS011;9455;54.302;10.124;2023-02-28T13:19:37;2.30;;;1.37;;
18651;SDS011;9455;54.302;10.124;2023-02-28T13:22:05;1.50;;;1.40;;
18651;SDS011;9455;54.302;10.124;2023-02-28T13:24:45;2.60;;;1.60;;
18651;SDS011;9455;54.302;10.124;2023-02-28T13:27:21;4.33;;;1.20;;
18651;SDS011;9455;54.302;10.124;2023-02-28T13:29:50;1.63;;;1.30;;
18651;SDS011;9455;54.302;10.124;2023-02-28T13:35:12;1.47;;;1.40;;
18651;SDS011;9455;54.302;10.124;2023-02-28T13:38:12;1.30;;;1.30;;
18651;SDS011;9455;54.302;10.124;2023-02-28T13:40:44;3.83;;;1.37;;
18651;SDS011;9455;54.302;10.124;2023-02-28T13:43:12;2.60;;;1.40;;
18651;SDS011;9455;54.302;10.124;2023-02-28T13:48:36;1.87;;;1.47;;
18651;SDS011;9455;54.302;10.124;2023-02-28T13:53:56;3.43;;;1.50;;
18651;SDS011;9455;54.302;10.124;2023-02-28T13:56:32;5.20;;;1.57;;
18651;SDS011;9455;54.302;10.124;2023-02-28T13:59:12;1.30;;;1.20;;
18651;SDS011;9455;54.302;10.124;2023-02-28T14:01:51;1.93;;;1.50;;
18651;SDS011;9455;54.302;10.124;2023-02-28T14:07:23;1.20;;;1.20;;
18651;SDS011;9455;54.302;10.124;2023-02-28T14:09:57;2.70;;;1.53;;
18651;SDS011;9455;54.302;10.124;2023-02-28T14:15:26;1.57;;;1.33;;
18651;SDS011;9455;54.302;10.124;2023-02-28T14:18:05;1.60;;;1.40;;
18651;SDS011;9455;54.302;10.124;2023-02-28T14:20:40;2.30;;;1.43;;
18651;SDS011;9455;54.302;10.124;2023-02-28T14:23:09;1.43;;;1.33;;
18651;SDS011;9455;54.302;10.124;2023-02-28T14:25:44;1.50;;;1.40;;
18651;SDS011;9455;54.302;10.124;2023-02-28T14:28:33;3.67;;;1.73;;
18651;SDS011;9455;54.302;10.124;2023-02-28T14:31:12;1.67;;;1.57;;
18651;SDS011;9455;54.302;10.124;2023-02-28T14:33:44;1.63;;;1.50;;
18651;SDS011;9455;54.302;10.124;2023-02-28T14:36:25;1.87;;;1.47;;
18651;SDS011;9455;54.302;10.124;2023-02-28T14:38:55;2.27;;;1.73;;
18651;SDS011;9455;54.302;10.124;2023-02-28T14:41:26;1.67;;;1.53;;
18651;SDS011;9455;54.302;10.124;2023-02-28T14:43:58;2.80;;;1.80;;
18651;SDS011;9455;54.302;10.124;2023-02-28T14:46:26;2.63;;;1.60;;
18651;SDS011;9455;54.302;10.124;2023-02-28T14:49:00;3.90;;;1.80;;
18651;SDS011;9455;54.302;10.124;2023-02-28T14:51:27;1.30;;;1.20;;
18651;SDS011;9455;54.302;10.124;2023-02-28T14:53:56;1.07;;;1.07;;
18651;SDS011;9455;54.302;10.124;2023-02-28T14:56:26;1.30;;;1.30;;
18651;SDS011;9455;54.302;10.124;2023-02-28T14:58:57;2.37;;;1.40;;
18651;SDS011;9455;54.302;10.124;2023-02-28T15:01:24;4.40;;;1.33;;
18651;SDS011;9455;54.302;10.124;2023-02-28T15:03:57;1.60;;;1.50;;
18651;SDS011;9455;54.302;10.124;2023-02-28T15:06:26;2.67;;;2.20;;
18651;SDS011;9455;54.302;10.124;2023-02-28T15:09:09;2.20;;;1.90;;
18651;SDS011;9455;54.302;10.124;2023-02-28T15:11:39;1.63;;;1.60;;
18651;SDS011;9455;54.302;10.124;2023-02-28T15:14:12;1.37;;;1.23;;
18651;SDS011;9455;54.302;10.124;2023-02-28T15:16:44;1.40;;;1.30;;
18651;SDS011;9455;54.302;10.124;2023-02-28T15:19:14;4.20;;;1.80;;
18651;SDS011;9455;54.302;10.124;2023-02-28T15:24:15;1.97;;;1.70;;
18651;SDS011;9455;54.302;10.124;2023-02-28T15:26:49;2.00;;;1.60;;
18651;SDS011;9455;54.302;10.124;2023-02-28T15:29:21;7.43;;;1.30;;
18651;SDS011;9455;54.302;10.124;2023-02-28T15:31:50;3.60;;;1.70;;
18651;SDS011;9455;54.302;10.124;2023-02-28T15:34:22;2.47;;;1.60;;